Time;durP1;ratioP1;P1;durP2;ratioP2;P2;SDS_P1;SDS_P2;PMS_P1;PMS_P2;Temp;Humidity;BMP_temperature;BMP_pressure;BME280_temperature;BME280_humidity;BME280_pressure;Samples;Min_cycle;Max_cycle;Signal;HPM_P1;HPM_P2
2023/02/04 00:02:53;;;;;;;10.75;3.92;;;9.40;53.40;;;;;;6123544;29;20032;-62
2023/02/04 00:05:53;;;;;;;13.73;3.70;;;9.40;53.20;;;;;;6123393;29;20491;-64
2023/02/04 00:08:54;;;;;;;12.38;4.10;;;9.40;53.20;;;;;;6122904;28;20442;-63
2023/02/04 00:11:55;;;;;;;9.52;3.72;;;9.40;53.00;;;;;;6123226;29;20040;-63
2023/02/04 00:14:56;;;;;;;6.57;3.53;;;9.30;52.90;;;;;;6121885;29;20032;-64
2023/02/04 00:17:57;;;;;;;9.45;4.18;;;9.30;52.80;;;;;;6122939;29;20108;-63
2023/02/04 00:20:58;;;;;;;11.93;4.03;;;9.20;52.80;;;;;;6123175;29;20411;-63
2023/02/04 00:23:58;;;;;;;8.73;3.67;;;9.10;52.80;;;;;;6121950;28;20486;-61
2023/02/04 00:26:59;;;;;;;5.65;3.60;;;9.20;52.90;;;;;;6123144;29;20028;-64
2023/02/04 00:30:01;;;;;;;7.70;4.28;;;9.10;52.90;;;;;;6121310;28;20079;-63
2023/02/04 00:33:03;;;;;;;10.85;4.63;;;9.00;53.00;;;;;;6106096;28;20028;-63
2023/02/04 00:36:04;;;;;;;12.80;5.15;;;8.90;53.10;;;;;;6121535;28;20070;-63
2023/02/04 00:39:05;;;;;;;11.27;4.25;;;8.90;53.20;;;;;;6122667;29;20110;-63
2023/02/04 00:42:07;;;;;;;9.60;4.53;;;8.80;53.20;;;;;;6122726;29;20027;-63
2023/02/04 00:45:11;;;;;;;9.57;4.57;;;8.80;53.40;;;;;;6120579;28;20024;-63
2023/02/04 00:48:12;;;;;;;9.82;4.05;;;8.70;53.40;;;;;;6122348;29;20023;-63
2023/02/04 00:51:13;;;;;;;15.65;4.80;;;8.60;53.40;;;;;;6121476;28;20035;-62
2023/02/04 00:54:17;;;;;;;10.48;5.05;;;8.60;53.50;;;;;;6121419;29;20134;-63
2023/02/04 00:57:18;;;;;;;11.10;4.55;;;8.60;53.60;;;;;;6122742;29;20031;-63
2023/02/04 01:00:19;;;;;;;9.68;4.15;;;8.60;53.60;;;;;;6121016;28;20035;-64
2023/02/04 01:03:20;;;;;;;10.70;4.22;;;8.60;53.60;;;;;;6121161;28;20039;-63
2023/02/04 01:06:21;;;;;;;7.75;4.10;;;8.60;53.60;;;;;;6105329;28;20480;-62
2023/02/04 01:09:22;;;;;;;5.20;2.97;;;8.50;53.60;;;;;;6120815;28;20039;-62
2023/02/04 01:12:26;;;;;;;20.05;4.03;;;8.60;53.60;;;;;;6120985;29;20032;-64
2023/02/04 01:15:26;;;;;;;10.05;4.80;;;8.60;53.60;;;;;;6122299;29;20054;-63
2023/02/04 01:18:28;;;;;;;6.55;3.20;;;8.60;53.50;;;;;;6120695;28;20516;-62
2023/02/04 01:21:29;;;;;;;8.65;3.58;;;8.60;53.60;;;;;;6120960;28;20043;-64
2023/02/04 01:24:30;;;;;;;6.85;3.25;;;8.70;53.70;;;;;;6099626;29;20055;-63
2023/02/04 01:27:50;;;;;;;7.78;3.45;;;8.70;53.80;;;;;;6098881;29;20453;-62
2023/02/04 01:30:51;;;;;;;7.28;2.90;;;8.70;53.80;;;;;;6097234;28;20037;-62
2023/02/04 01:33:52;;;;;;;6.78;3.55;;;8.70;53.80;;;;;;6098553;28;20032;-63
2023/02/04 01:36:53;;;;;;;7.47;3.28;;;8.80;53.90;;;;;;6098472;28;20024;-63
2023/02/04 01:39:54;;;;;;;11.63;3.63;;;8.70;53.90;;;;;;6097018;28;20063;-63
2023/02/04 01:42:55;;;;;;;11.70;4.65;;;8.70;53.80;;;;;;6098254;29;20086;-62
2023/02/04 01:45:58;;;;;;;9.32;4.68;;;8.70;53.80;;;;;;6098402;29;20028;-63
2023/02/04 01:48:59;;;;;;;7.95;4.18;;;8.60;53.80;;;;;;6096911;28;20039;-63
2023/02/04 01:52:01;;;;;;;16.48;4.90;;;8.60;53.80;;;;;;6105531;28;20032;-62
2023/02/04 01:55:08;;;;;;;9.65;4.70;;;8.60;53.80;;;;;;6120928;29;20496;-63
2023/02/04 01:58:11;;;;;;;8.77;4.68;;;8.50;53.80;;;;;;6124200;29;20039;-66
2023/02/04 02:01:33;;;;;;;11.75;4.82;;;8.50;53.90;;;;;;6124368;28;20050;-62
2023/02/04 02:04:35;;;;;;;9.50;4.28;;;8.50;53.90;;;;;;6124314;29;20039;-62
2023/02/04 02:07:36;;;;;;;7.53;4.10;;;8.50;53.90;;;;;;6108576;28;20041;-64
2023/02/04 02:10:40;;;;;;;13.57;4.47;;;8.40;53.90;;;;;;6124193;28;20127;-63
2023/02/04 02:13:40;;;;;;;9.02;4.07;;;8.40;54.00;;;;;;6124219;29;20054;-63
2023/02/04 02:16:42;;;;;;;12.65;4.65;;;8.40;54.00;;;;;;6124265;29;20063;-62
2023/02/04 02:19:43;;;;;;;15.75;5.13;;;8.40;54.00;;;;;;6124857;29;20169;-62
2023/02/04 02:23:04;;;;;;;11.70;4.35;;;8.40;54.10;;;;;;6122870;28;20731;-62
2023/02/04 02:26:05;;;;;;;9.02;3.90;;;8.40;54.10;;;;;;6124361;28;20067;-62
2023/02/04 02:29:06;;;;;;;8.77;4.47;;;8.40;54.10;;;;;;6123800;28;20082;-62
2023/02/04 02:32:08;;;;;;;12.30;4.03;;;8.40;54.10;;;;;;6125387;29;20028;-63
2023/02/04 02:35:10;;;;;;;10.25;4.07;;;8.40;54.10;;;;;;6124022;28;20579;-62
2023/02/04 02:38:11;;;;;;;8.88;4.18;;;8.40;54.10;;;;;;6123514;28;20039;-63
2023/02/04 02:41:12;;;;;;;10.65;4.22;;;8.40;54.20;;;;;;6123899;28;20086;-63
2023/02/04 02:44:14;;;;;;;8.75;4.57;;;8.40;54.20;;;;;;6125064;29;20036;-62
2023/02/04 02:47:18;;;;;;;10.10;4.00;;;8.30;54.20;;;;;;6123611;28;20377;-63
2023/02/04 02:50:23;;;;;;;9.40;4.45;;;8.30;54.30;;;;;;6124734;29;20054;-64
2023/02/04 02:53:24;;;;;;;11.43;4.80;;;8.10;54.30;;;;;;6123441;28;20036;-62
2023/02/04 02:56:25;;;;;;;10.23;4.53;;;8.10;54.50;;;;;;6123224;28;20523;-63
2023/02/04 02:59:27;;;;;;;13.80;4.57;;;8.10;54.60;;;;;;6124165;29;20051;-63
2023/02/04 03:02:27;;;;;;;11.20;4.13;;;8.10;54.60;;;;;;6123548;28;20381;-63
2023/02/04 03:05:31;;;;;;;13.32;5.00;;;8.10;54.70;;;;;;6123225;29;20165;-64
2023/02/04 03:08:32;;;;;;;6.97;4.00;;;8.10;54.70;;;;;;6123516;29;20032;-62
2023/02/04 03:11:32;;;;;;;10.38;3.10;;;8.00;54.80;;;;;;6124468;29;20388;-63
2023/02/04 03:14:34;;;;;;;5.72;3.75;;;8.00;54.80;;;;;;6123304;28;20028;-62
2023/02/04 03:17:35;;;;;;;9.23;4.07;;;7.90;54.80;;;;;;6122880;29;20040;-62
2023/02/04 03:20:39;;;;;;;13.05;3.55;;;7.90;54.80;;;;;;6123009;29;20391;-63
2023/02/04 03:23:40;;;;;;;7.03;3.78;;;7.90;54.90;;;;;;6114991;29;20044;-63
2023/02/04 03:26:41;;;;;;;12.68;4.90;;;7.90;55.00;;;;;;6099283;29;20043;-63
2023/02/04 03:29:43;;;;;;;10.68;4.22;;;8.00;55.00;;;;;;6100322;28;20032;-63
2023/02/04 03:32:44;;;;;;;16.30;4.55;;;8.00;55.10;;;;;;6114943;28;20358;-63
2023/02/04 03:35:44;;;;;;;12.15;5.20;;;8.00;55.10;;;;;;6099153;29;20047;-63
2023/02/04 03:38:45;;;;;;;10.23;4.05;;;8.00;55.10;;;;;;6098884;29;20058;-62
2023/02/04 03:41:46;;;;;;;9.23;4.10;;;7.90;55.10;;;;;;6099219;29;20036;-63
2023/02/04 03:44:47;;;;;;;9.88;4.00;;;7.90;55.10;;;;;;6100272;29;20094;-63
2023/02/04 03:47:48;;;;;;;10.10;4.60;;;7.90;55.10;;;;;;6100258;29;20040;-62
2023/02/04 03:50:49;;;;;;;12.20;5.00;;;7.80;55.20;;;;;;6100207;29;20032;-62
2023/02/04 03:53:49;;;;;;;18.13;4.63;;;7.70;55.30;;;;;;6121598;28;20031;-62
2023/02/04 03:56:50;;;;;;;17.65;6.35;;;7.70;55.50;;;;;;6123415;29;20389;-63
2023/02/04 03:59:51;;;;;;;12.80;5.18;;;7.60;55.50;;;;;;6123320;29;20031;-63
2023/02/04 04:02:52;;;;;;;11.35;6.00;;;7.50;55.60;;;;;;6122395;29;20114;-62
2023/02/04 04:05:53;;;;;;;18.02;5.88;;;7.40;55.80;;;;;;6123636;28;20031;-61
2023/02/04 04:08:54;;;;;;;10.63;4.57;;;7.40;55.80;;;;;;6122960;28;20035;-62
2023/02/04 04:11:55;;;;;;;12.13;4.18;;;7.40;56.00;;;;;;6122181;28;20047;-64
2023/02/04 04:14:56;;;;;;;10.82;4.63;;;7.40;56.00;;;;;;6123072;28;20486;-62
2023/02/04 04:17:56;;;;;;;12.63;5.15;;;7.40;55.80;;;;;;6121423;28;20036;-62
2023/02/04 04:20:58;;;;;;;11.85;4.28;;;7.40;55.90;;;;;;6122103;29;20039;-62
2023/02/04 04:23:59;;;;;;;9.10;4.75;;;7.40;55.80;;;;;;6104897;28;20032;-63
2023/02/04 04:27:00;;;;;;;11.80;4.65;;;7.40;55.80;;;;;;6098226;29;20044;-63
2023/02/04 04:30:01;;;;;;;7.25;3.78;;;7.50;55.90;;;;;;6099160;29;20457;-62
2023/02/04 04:33:02;;;;;;;6.47;3.58;;;7.40;56.00;;;;;;6099280;29;20389;-62
2023/02/04 04:36:04;;;;;;;10.95;5.43;;;7.40;56.10;;;;;;6099326;28;20032;-64
2023/02/04 04:39:05;;;;;;;9.25;4.47;;;7.40;56.10;;;;;;6098867;28;20101;-61
2023/02/04 04:42:06;;;;;;;15.60;5.70;;;7.40;56.30;;;;;;6097904;29;20048;-63
2023/02/04 04:45:09;;;;;;;12.68;4.35;;;7.30;56.30;;;;;;6097796;29;20032;-63
2023/02/04 04:48:09;;;;;;;9.45;4.10;;;7.30;56.40;;;;;;6100433;29;20743;-64
2023/02/04 04:51:10;;;;;;;6.13;3.75;;;7.30;56.30;;;;;;6122699;28;20024;-63
2023/02/04 04:54:11;;;;;;;11.15;4.60;;;7.30;56.40;;;;;;6121792;28;20483;-62
2023/02/04 04:57:12;;;;;;;10.98;4.60;;;7.30;56.40;;;;;;6122888;29;20480;-61
2023/02/04 05:00:19;;;;;;;15.50;4.63;;;7.30;56.50;;;;;;6122169;29;20063;-63
2023/02/04 05:03:20;;;;;;;11.35;4.72;;;7.30;56.50;;;;;;6120963;29;20090;-64
2023/02/04 05:06:24;;;;;;;9.57;3.75;;;7.30;56.50;;;;;;6122336;29;20043;-61
2023/02/04 05:09:25;;;;;;;11.88;4.18;;;7.30;56.50;;;;;;6121802;29;20779;-62
2023/02/04 05:12:25;;;;;;;10.00;3.83;;;7.30;56.60;;;;;;6121165;29;20077;-63
2023/02/04 05:15:26;;;;;;;9.40;4.22;;;7.20;56.60;;;;;;6122087;29;20145;-62
2023/02/04 05:18:27;;;;;;;6.00;3.17;;;7.20;56.70;;;;;;6120593;29;20063;-63
2023/02/04 05:21:28;;;;;;;15.20;4.35;;;7.20;56.80;;;;;;6122051;29;20028;-62
2023/02/04 05:24:29;;;;;;;10.77;4.05;;;7.20;56.80;;;;;;6113087;29;20032;-63
2023/02/04 05:27:30;;;;;;;8.13;4.28;;;7.20;57.00;;;;;;6098128;29;20397;-62
2023/02/04 05:30:30;;;;;;;8.68;4.68;;;7.20;57.00;;;;;;6164521;28;20389;-63
2023/02/04 05:33:31;;;;;;;13.43;6.10;;;7.10;56.90;;;;;;6102744;29;20032;-63
2023/02/04 05:36:32;;;;;;;13.50;6.47;;;7.10;56.90;;;;;;6101701;29;20063;-62
2023/02/04 05:39:33;;;;;;;10.25;5.07;;;7.10;57.00;;;;;;6102473;29;20039;-61
2023/02/04 05:42:34;;;;;;;14.27;6.10;;;7.10;57.10;;;;;;6102768;29;20273;-62
2023/02/04 05:45:34;;;;;;;19.80;6.10;;;7.00;57.00;;;;;;6101096;28;20033;-62
2023/02/04 05:48:36;;;;;;;22.30;5.05;;;6.90;57.10;;;;;;6100928;29;20593;-63
2023/02/04 05:51:38;;;;;;;13.98;4.68;;;6.90;57.20;;;;;;6106488;28;20036;-62
2023/02/04 05:54:39;;;;;;;14.98;5.78;;;6.90;57.30;;;;;;6125916;29;20039;-62
2023/02/04 05:57:40;;;;;;;14.20;5.13;;;6.80;57.40;;;;;;6125570;29;20038;-65
2023/02/04 06:00:41;;;;;;;12.38;4.90;;;6.70;57.40;;;;;;6124274;29;20036;-63
2023/02/04 06:03:42;;;;;;;12.68;4.85;;;6.80;57.60;;;;;;6125778;29;20118;-62
2023/02/04 06:06:43;;;;;;;10.15;4.90;;;6.80;57.60;;;;;;6125700;29;20067;-62
2023/02/04 06:09:43;;;;;;;8.52;3.80;;;6.80;57.60;;;;;;6125159;29;20039;-65
2023/02/04 06:12:44;;;;;;;10.20;4.65;;;6.90;57.60;;;;;;6124345;28;20032;-62
2023/02/04 06:15:45;;;;;;;11.93;4.80;;;6.80;57.60;;;;;;6124947;29;20400;-63
2023/02/04 06:18:46;;;;;;;10.88;3.67;;;6.80;57.60;;;;;;6126043;28;20443;-63
2023/02/04 06:21:47;;;;;;;14.20;4.40;;;6.80;57.70;;;;;;6124850;28;20036;-61
2023/02/04 06:24:47;;;;;;;10.95;4.20;;;6.80;57.80;;;;;;6126061;29;20085;-62
2023/02/04 06:27:48;;;;;;;10.35;4.65;;;6.80;57.80;;;;;;6124363;29;20048;-63
2023/02/04 06:30:49;;;;;;;7.95;3.85;;;6.80;57.80;;;;;;6124316;29;20484;-62
2023/02/04 06:33:50;;;;;;;10.55;4.75;;;6.80;57.70;;;;;;6125737;29;20024;-64
2023/02/04 06:36:51;;;;;;;10.60;4.43;;;6.80;57.70;;;;;;6125927;29;20028;-63
2023/02/04 06:39:53;;;;;;;12.68;4.68;;;6.90;57.80;;;;;;6123853;28;20106;-62
2023/02/04 06:42:54;;;;;;;8.27;4.07;;;6.90;57.70;;;;;;6124852;28;20046;-62
2023/02/04 06:45:55;;;;;;;10.63;4.25;;;6.80;57.50;;;;;;6124610;28;20063;-62
2023/02/04 06:48:55;;;;;;;8.73;3.63;;;6.80;57.60;;;;;;6123923;28;20036;-63
2023/02/04 06:51:56;;;;;;;13.25;4.97;;;6.80;57.70;;;;;;6125273;28;20167;-64
2023/02/04 06:54:57;;;;;;;8.52;4.22;;;6.90;57.80;;;;;;6125116;29;20047;-63
2023/02/04 06:57:58;;;;;;;8.18;3.97;;;6.90;57.80;;;;;;6125111;28;20032;-64
2023/02/04 07:00:59;;;;;;;9.32;4.53;;;7.00;57.70;;;;;;6123939;28;20099;-62
2023/02/04 07:03:59;;;;;;;9.45;3.92;;;7.00;57.60;;;;;;6125455;29;20427;-63
2023/02/04 07:07:00;;;;;;;7.75;4.20;;;7.10;57.60;;;;;;6123763;28;20432;-62
2023/02/04 07:10:01;;;;;;;7.57;3.78;;;7.10;57.50;;;;;;6124612;29;20024;-65
2023/02/04 07:13:02;;;;;;;10.20;3.40;;;7.10;57.50;;;;;;6124879;29;20436;-63
2023/02/04 07:16:03;;;;;;;9.65;4.18;;;7.20;57.50;;;;;;6123355;28;20115;-63
2023/02/04 07:19:04;;;;;;;10.55;4.40;;;7.20;57.40;;;;;;6124157;29;20546;-63
2023/02/04 07:22:05;;;;;;;7.18;3.40;;;7.30;57.40;;;;;;6124163;29;20032;-63
2023/02/04 07:25:06;;;;;;;10.48;3.88;;;7.40;57.30;;;;;;6124361;28;20512;-63
2023/02/04 07:28:07;;;;;;;8.90;4.20;;;7.40;57.20;;;;;;6122959;29;20116;-62
2023/02/04 07:31:07;;;;;;;7.13;3.58;;;7.50;57.10;;;;;;6124265;29;20031;-63
2023/02/04 07:34:08;;;;;;;9.63;4.03;;;7.60;57.00;;;;;;6124146;29;20158;-62
2023/02/04 07:37:09;;;;;;;11.95;4.53;;;7.70;56.90;;;;;;6124190;28;20032;-62
2023/02/04 07:40:11;;;;;;;10.00;4.53;;;7.80;56.70;;;;;;6123954;29;20032;-62
2023/02/04 07:43:12;;;;;;;9.32;3.65;;;7.90;56.50;;;;;;6122880;29;20047;-63
2023/02/04 07:46:13;;;;;;;11.40;3.85;;;7.90;56.30;;;;;;6122847;28;20035;-63
2023/02/04 07:49:14;;;;;;;9.63;4.18;;;7.90;56.20;;;;;;6123764;28;20086;-63
2023/02/04 07:52:14;;;;;;;6.70;3.55;;;7.90;56.00;;;;;;6169896;28;20034;-63
2023/02/04 07:55:15;;;;;;;13.38;4.45;;;8.00;56.00;;;;;;6247520;28;20029;-62
2023/02/04 07:58:16;;;;;;;18.77;4.70;;;8.00;55.90;;;;;;6247415;28;20084;-62
2023/02/04 08:01:17;;;;;;;9.68;4.65;;;8.00;55.80;;;;;;6246221;28;20041;-64
2023/02/04 08:04:18;;;;;;;11.23;4.43;;;8.00;55.70;;;;;;6247477;28;20482;-63
2023/02/04 08:07:19;;;;;;;10.77;4.32;;;8.00;55.70;;;;;;6246090;28;20044;-63
2023/02/04 08:10:20;;;;;;;12.45;4.72;;;7.90;55.60;;;;;;6247235;28;20382;-63
2023/02/04 08:13:21;;;;;;;9.88;4.63;;;7.90;55.60;;;;;;6247309;28;20561;-63
2023/02/04 08:16:22;;;;;;;10.63;5.28;;;7.90;55.70;;;;;;6247363;28;20033;-62
2023/02/04 08:19:22;;;;;;;12.70;5.38;;;7.90;55.70;;;;;;6246843;28;20078;-64
2023/02/04 08:22:23;;;;;;;7.57;4.57;;;7.90;55.60;;;;;;6215779;28;20032;-64
2023/02/04 08:25:24;;;;;;;12.68;5.80;;;7.90;55.50;;;;;;6122762;29;20040;-64
2023/02/04 08:28:25;;;;;;;10.40;4.68;;;7.90;55.50;;;;;;6121400;29;20031;-63
2023/02/04 08:31:26;;;;;;;14.27;4.70;;;7.90;56.20;;;;;;6121428;29;20392;-64
2023/02/04 08:34:27;;;;;;;13.55;4.97;;;7.90;55.60;;;;;;6109451;28;20424;-64
2023/02/04 08:37:28;;;;;;;11.23;5.47;;;7.90;55.60;;;;;;6097656;29;20048;-62
2023/02/04 08:40:28;;;;;;;12.32;4.80;;;8.10;55.50;;;;;;6097945;29;20090;-64
2023/02/04 08:43:29;;;;;;;11.30;5.32;;;8.00;55.40;;;;;;6098729;29;20119;-63
2023/02/04 08:46:30;;;;;;;9.65;4.45;;;8.10;55.30;;;;;;6098975;29;20389;-63
2023/02/04 08:49:31;;;;;;;10.27;4.43;;;8.20;55.10;;;;;;6096982;29;20404;-65
2023/02/04 08:52:32;;;;;;;9.90;5.22;;;8.20;54.80;;;;;;6110087;28;20035;-63
2023/02/04 08:55:32;;;;;;;9.88;4.72;;;8.20;54.70;;;;;;6120904;29;20036;-64
2023/02/04 08:58:34;;;;;;;12.23;4.68;;;8.30;54.70;;;;;;6121974;29;20373;-64
2023/02/04 09:01:35;;;;;;;9.18;4.93;;;8.30;54.50;;;;;;6122258;29;20040;-64
2023/02/04 09:04:35;;;;;;;9.98;4.93;;;8.40;54.40;;;;;;6120825;29;20094;-63
2023/02/04 09:07:36;;;;;;;16.75;5.28;;;8.40;54.30;;;;;;6121604;29;20039;-64
2023/02/04 09:10:37;;;;;;;12.52;5.75;;;8.50;54.10;;;;;;6121916;29;20392;-64
2023/02/04 09:13:38;;;;;;;10.93;4.30;;;8.60;54.00;;;;;;6121987;29;20050;-62
2023/02/04 09:16:39;;;;;;;13.43;5.45;;;8.60;53.80;;;;;;6120704;29;20035;-63
2023/02/04 09:19:40;;;;;;;13.82;5.00;;;8.70;53.40;;;;;;6121668;29;20032;-63
2023/02/04 09:22:41;;;;;;;15.52;5.78;;;8.80;53.30;;;;;;6122118;29;20031;-64
2023/02/04 09:25:43;;;;;;;15.25;5.50;;;8.90;53.30;;;;;;6121919;28;20027;-65
2023/02/04 09:28:44;;;;;;;13.45;5.95;;;8.90;53.10;;;;;;6121549;29;20089;-63
2023/02/04 09:31:45;;;;;;;16.20;5.78;;;9.00;52.80;;;;;;6121842;28;20039;-63
2023/02/04 09:34:46;;;;;;;12.10;5.40;;;9.00;52.80;;;;;;6121889;29;20164;-63
2023/02/04 09:37:46;;;;;;;14.23;6.10;;;9.00;52.50;;;;;;6121823;29;20024;-65
2023/02/04 09:40:53;;;;;;;18.98;6.05;;;9.00;52.50;;;;;;6120706;28;20043;-62
2023/02/04 09:43:54;;;;;;;14.20;6.00;;;9.00;52.40;;;;;;6121802;29;20043;-66
2023/02/04 09:46:57;;;;;;;16.58;6.60;;;9.00;52.40;;;;;;6121896;28;20031;-62
2023/02/04 09:49:58;;;;;;;19.35;7.28;;;9.00;52.50;;;;;;6120086;29;20036;-64
2023/02/04 09:53:09;;;;;;;15.85;5.93;;;9.10;52.50;;;;;;6120573;28;20090;-63
2023/02/04 09:56:11;;;;;;;12.50;5.38;;;9.20;52.50;;;;;;6121342;29;20035;-63
2023/02/04 09:59:15;;;;;;;11.48;5.40;;;9.20;52.30;;;;;;6119598;29;20063;-63
2023/02/04 10:02:24;;;;;;;13.48;5.90;;;9.30;52.20;;;;;;6121382;29;20376;-63
2023/02/04 10:05:33;;;;;;;15.25;6.80;;;9.40;52.10;;;;;;6121473;29;20062;-64
2023/02/04 10:08:33;;;;;;;13.30;5.55;;;9.50;52.00;;;;;;6119797;29;20031;-63
2023/02/04 10:11:38;;;;;;;19.40;5.57;;;9.60;51.90;;;;;;6121127;29;20036;-64
2023/02/04 10:14:39;;;;;;;15.15;5.38;;;9.70;51.80;;;;;;6119534;28;20032;-64
2023/02/04 10:17:40;;;;;;;14.18;5.85;;;9.80;51.70;;;;;;6122153;29;20046;-64
2023/02/04 10:20:41;;;;;;;26.73;7.97;;;9.90;51.60;;;;;;6124785;29;20114;-63
2023/02/04 10:23:44;;;;;;;13.07;5.72;;;10.00;51.50;;;;;;6124669;29;20061;-64
2023/02/04 10:26:46;;;;;;;19.23;5.35;;;10.10;51.40;;;;;;6097415;28;20110;-63
2023/02/04 10:29:57;;;;;;;21.83;6.32;;;10.20;51.30;;;;;;6099631;28;20366;-64
2023/02/04 10:32:59;;;;;;;13.05;5.80;;;10.40;51.20;;;;;;6099651;29;20439;-64
2023/02/04 10:36:00;;;;;;;13.70;6.28;;;10.50;51.00;;;;;;6101369;28;20478;-64
2023/02/04 10:39:02;;;;;;;12.27;5.65;;;10.60;50.90;;;;;;6099971;29;20044;-64
2023/02/04 10:42:04;;;;;;;13.10;5.57;;;10.70;50.70;;;;;;6101311;28;20059;-64
2023/02/04 10:45:05;;;;;;;19.80;6.93;;;10.80;50.50;;;;;;6101299;29;20050;-63
2023/02/04 10:48:14;;;;;;;15.30;6.20;;;10.90;50.30;;;;;;6100779;28;20029;-64
2023/02/04 10:51:15;;;;;;;28.10;8.40;;;11.10;50.20;;;;;;6102127;28;20036;-63
2023/02/04 10:54:30;;;;;;;9.50;5.03;;;11.20;49.90;;;;;;6123107;28;20035;-64
2023/02/04 10:57:38;;;;;;;12.32;5.68;;;11.30;49.60;;;;;;6122906;28;20086;-64
2023/02/04 11:00:40;;;;;;;18.90;6.90;;;11.40;49.30;;;;;;6122893;29;20036;-63
2023/02/04 11:03:42;;;;;;;10.88;5.32;;;11.50;49.10;;;;;;6124400;29;20062;-64
2023/02/04 11:06:43;;;;;;;13.60;5.60;;;11.50;48.70;;;;;;6123008;29;20130;-64
2023/02/04 11:09:44;;;;;;;15.95;5.93;;;11.50;48.80;;;;;;6122870;28;20040;-63
2023/02/04 11:12:46;;;;;;;9.30;5.40;;;11.50;48.70;;;;;;6124155;29;20081;-64
2023/02/04 11:15:53;;;;;;;11.77;5.38;;;11.60;48.80;;;;;;6123776;29;20032;-65
2023/02/04 11:19:15;;;;;;;17.17;6.20;;;11.60;48.70;;;;;;6123450;29;20024;-64
2023/02/04 11:22:36;;;;;;;22.08;5.78;;;11.60;48.60;;;;;;6123089;28;20084;-64
2023/02/04 11:25:38;;;;;;;14.38;6.70;;;11.70;48.70;;;;;;6124020;29;20031;-64
2023/02/04 11:28:39;;;;;;;22.55;6.32;;;11.90;48.40;;;;;;6121493;29;20039;-63
2023/02/04 11:31:42;;;;;;;18.52;7.18;;;12.10;48.10;;;;;;6123913;28;20047;-64
2023/02/04 11:34:54;;;;;;;15.35;6.53;;;12.20;47.90;;;;;;6123457;29;20468;-63
2023/02/04 11:37:56;;;;;;;15.02;6.13;;;12.50;47.40;;;;;;6121865;29;20122;-63
2023/02/04 11:40:58;;;;;;;12.02;5.65;;;12.90;46.70;;;;;;6106253;28;20043;-64
2023/02/04 11:43:59;;;;;;;12.50;5.85;;;13.20;46.10;;;;;;6123630;29;20062;-65
2023/02/04 11:47:05;;;;;;;16.25;6.28;;;13.70;45.40;;;;;;6123737;28;20472;-64
2023/02/04 11:50:21;;;;;;;10.43;5.60;;;14.30;44.00;;;;;;6123326;29;20096;-66
2023/02/04 11:53:27;;;;;;;15.13;6.88;;;14.70;43.20;;;;;;6123203;28;20027;-64
2023/02/04 11:56:29;;;;;;;18.60;7.13;;;15.00;42.90;;;;;;6123254;29;20055;-63
2023/02/04 11:59:30;;;;;;;17.55;6.63;;;15.40;42.60;;;;;;6123119;29;20047;-64
2023/02/04 12:02:45;;;;;;;21.38;7.60;;;15.80;41.70;;;;;;6123280;29;20031;-64
2023/02/04 12:05:46;;;;;;;16.05;6.80;;;16.30;40.60;;;;;;6123211;29;20035;-64
2023/02/04 12:08:47;;;;;;;17.13;7.28;;;16.80;40.10;;;;;;6121575;29;20048;-64
2023/02/04 12:11:53;;;;;;;15.77;6.53;;;17.40;39.10;;;;;;6123079;29;20086;-64
2023/02/04 12:15:12;;;;;;;15.82;7.90;;;17.90;38.10;;;;;;6122837;29;20106;-64
2023/02/04 12:18:15;;;;;;;;;;;18.30;37.50;;;;;;6123022;28;20102;-63
2023/02/04 12:21:20;;;;;;;15.88;6.78;;;18.40;36.10;;;;;;6121812;29;19911;-63
2023/02/04 12:24:21;;;;;;;17.67;6.95;;;18.00;36.80;;;;;;6100504;28;20044;-64
2023/02/04 12:27:21;;;;;;;10.52;6.60;;;17.50;37.40;;;;;;6097989;29;20032;-64
2023/02/04 12:30:24;;;;;;;14.90;7.13;;;17.10;38.20;;;;;;6099358;29;20032;-64
2023/02/04 12:33:25;;;;;;;13.20;6.80;;;16.60;38.70;;;;;;6099295;29;20028;-64
2023/02/04 12:36:28;;;;;;;17.98;7.07;;;16.20;39.40;;;;;;6099266;29;20028;-65
2023/02/04 12:39:30;;;;;;;22.92;7.28;;;15.80;40.10;;;;;;6098079;29;20059;-64
2023/02/04 12:42:32;;;;;;;14.40;6.95;;;15.60;40.70;;;;;;6099163;29;20036;-64
2023/02/04 12:45:33;;;;;;;11.45;5.63;;;15.40;41.20;;;;;;6099124;29;20115;-64
2023/02/04 12:48:34;;;;;;;14.95;5.95;;;15.20;41.60;;;;;;6098538;28;20035;-65
2023/02/04 12:51:35;;;;;;;11.95;5.95;;;15.10;41.80;;;;;;6117337;28;20480;-63
2023/02/04 12:54:35;;;;;;;15.35;6.10;;;15.00;42.10;;;;;;6121434;29;20089;-64
2023/02/04 12:57:36;;;;;;;14.98;6.00;;;14.90;42.30;;;;;;6119954;29;20062;-64
2023/02/04 13:00:37;;;;;;;12.77;4.90;;;14.80;42.50;;;;;;6120674;29;20483;-62
2023/02/04 13:03:38;;;;;;;13.00;5.28;;;14.70;42.70;;;;;;6121988;29;20084;-63
2023/02/04 13:06:39;;;;;;;13.07;4.93;;;14.60;43.00;;;;;;6120596;29;20032;-63
2023/02/04 13:09:40;;;;;;;8.82;4.53;;;14.50;43.20;;;;;;6121502;28;20491;-65
2023/02/04 13:12:41;;;;;;;9.10;4.32;;;14.50;43.40;;;;;;6122101;29;20494;-64
2023/02/04 13:15:41;;;;;;;11.75;5.20;;;14.40;43.50;;;;;;6120691;28;20035;-63
2023/02/04 13:18:42;;;;;;;12.35;4.65;;;14.40;43.70;;;;;;6121508;29;20472;-64
2023/02/04 13:21:43;;;;;;;9.70;3.78;;;14.50;43.80;;;;;;6121652;28;20032;-63
2023/02/04 13:24:44;;;;;;;6.05;3.28;;;14.50;44.00;;;;;;6098218;29;20032;-65
2023/02/04 13:27:45;;;;;;;5.72;3.10;;;14.40;44.40;;;;;;6097887;29;20134;-64
2023/02/04 13:30:46;;;;;;;9.13;3.45;;;14.40;45.10;;;;;;6096683;29;20032;-64
2023/02/04 13:33:46;;;;;;;7.97;3.60;;;14.40;46.20;;;;;;6112775;29;20493;-64
2023/02/04 13:36:47;;;;;;;15.38;7.82;;;14.40;45.70;;;;;;6098104;28;20056;-64
2023/02/04 13:39:48;;;;;;;8.48;4.28;;;14.60;45.60;;;;;;6096362;28;20035;-64
2023/02/04 13:42:49;;;;;;;10.55;4.90;;;14.60;45.30;;;;;;6097941;28;20147;-64
2023/02/04 13:45:50;;;;;;;9.73;4.90;;;14.60;45.20;;;;;;6096434;28;20024;-64
2023/02/04 13:48:51;;;;;;;11.48;3.83;;;14.60;45.10;;;;;;6096049;29;20036;-64
2023/02/04 13:51:51;;;;;;;11.88;4.47;;;14.60;45.10;;;;;;6103503;28;20032;-64
2023/02/04 13:54:53;;;;;;;9.30;3.50;;;14.60;45.20;;;;;;6124395;29;20030;-65
2023/02/04 13:57:54;;;;;;;7.75;3.60;;;14.60;45.50;;;;;;6123483;29;20054;-64
2023/02/04 14:00:56;;;;;;;7.60;3.63;;;14.60;45.90;;;;;;6123634;29;20062;-65
2023/02/04 14:03:57;;;;;;;6.05;3.80;;;14.60;46.00;;;;;;6125240;29;20077;-63
2023/02/04 14:06:58;;;;;;;5.30;3.35;;;14.60;46.10;;;;;;6125458;29;20040;-64
2023/02/04 14:09:59;;;;;;;4.32;2.30;;;14.60;46.20;;;;;;6123400;29;20085;-64
2023/02/04 14:12:59;;;;;;;2.47;1.75;;;14.50;46.70;;;;;;6124639;28;20047;-64
2023/02/04 14:16:00;;;;;;;5.72;2.60;;;14.50;47.40;;;;;;6125422;29;20043;-63
2023/02/04 14:19:01;;;;;;;4.60;2.40;;;14.40;47.80;;;;;;6123349;28;20028;-64
2023/02/04 14:22:02;;;;;;;4.32;2.33;;;14.40;48.00;;;;;;6121851;28;20028;-65
2023/02/04 14:25:03;;;;;;;2.90;1.95;;;14.40;48.20;;;;;;6101436;29;20040;-64
2023/02/04 14:28:04;;;;;;;3.78;2.00;;;14.40;48.30;;;;;;6100793;29;20059;-63
2023/02/04 14:31:05;;;;;;;4.10;2.35;;;14.40;48.50;;;;;;6114921;29;20443;-63
2023/02/04 14:34:06;;;;;;;2.65;1.90;;;14.40;48.50;;;;;;6100948;29;20055;-63
2023/02/04 14:37:07;;;;;;;4.85;2.25;;;14.50;48.60;;;;;;6100917;29;20067;-64
2023/02/04 14:40:10;;;;;;;5.10;2.47;;;14.50;48.70;;;;;;6098991;29;20028;-63
2023/02/04 14:43:12;;;;;;;3.50;2.10;;;14.60;48.80;;;;;;6100922;29;20508;-64
2023/02/04 14:46:12;;;;;;;11.35;2.33;;;14.60;48.90;;;;;;6100945;29;20159;-63
2023/02/04 14:49:16;;;;;;;3.85;2.20;;;14.70;48.90;;;;;;6099305;28;20036;-64
2023/02/04 14:52:17;;;;;;;3.45;2.10;;;14.70;49.00;;;;;;6108626;28;20040;-63
2023/02/04 14:55:18;;;;;;;4.13;2.17;;;14.70;49.10;;;;;;6124220;29;20031;-64
2023/02/04 14:58:19;;;;;;;4.35;2.25;;;14.70;49.10;;;;;;6123832;29;20433;-63
2023/02/04 15:01:21;;;;;;;4.63;2.20;;;14.70;49.30;;;;;;6122793;28;20047;-63
2023/02/04 15:04:22;;;;;;;5.20;2.05;;;14.70;49.30;;;;;;6122700;29;20054;-64
2023/02/04 15:07:22;;;;;;;4.25;2.00;;;14.90;49.50;;;;;;6121652;28;20349;-64
2023/02/04 15:10:25;;;;;;;5.13;2.75;;;14.90;49.40;;;;;;6123152;29;20048;-63
2023/02/04 15:13:26;;;;;;;7.93;2.88;;;14.90;49.50;;;;;;6123313;29;20043;-63
2023/02/04 15:16:27;;;;;;;3.13;2.35;;;14.90;49.70;;;;;;6123991;29;20030;-63
2023/02/04 15:19:28;;;;;;;4.97;2.55;;;15.00;49.80;;;;;;6123478;29;20035;-63
2023/02/04 15:22:29;;;;;;;7.47;3.05;;;15.10;49.90;;;;;;6116136;29;20068;-64
2023/02/04 15:25:30;;;;;;;5.10;3.20;;;15.10;50.00;;;;;;6099916;29;20036;-63
2023/02/04 15:28:31;;;;;;;6.57;3.13;;;15.20;50.20;;;;;;6099928;28;20036;-64
2023/02/04 15:31:33;;;;;;;5.28;2.92;;;15.20;50.40;;;;;;6099873;29;20093;-64
2023/02/04 15:34:34;;;;;;;6.78;3.00;;;15.20;50.50;;;;;;6100156;29;20043;-64
2023/02/04 15:37:35;;;;;;;5.72;3.17;;;15.20;50.70;;;;;;6098526;29;20036;-64
2023/02/04 15:40:36;;;;;;;4.82;3.10;;;15.20;50.70;;;;;;6100456;29;20505;-66
2023/02/04 15:43:37;;;;;;;5.78;3.08;;;15.10;50.80;;;;;;6098980;29;20039;-64
2023/02/04 15:46:38;;;;;;;3.78;2.60;;;15.10;51.10;;;;;;6099934;28;20498;-64
2023/02/04 15:49:39;;;;;;;5.88;3.90;;;15.00;51.20;;;;;;6098094;28;20067;-63